sensor_id;sensor_type;location;lat;lon;timestamp;P1;durP1;ratioP1;P2;durP2;ratioP2
36221;SDS011;22266;52.340;4.962;2023-02-28T00:01:11;0.00;;;0.00;;
36221;SDS011;22266;52.340;4.962;2023-02-28T00:03:39;0.00;;;0.00;;
36221;SDS011;22266;52.340;4.962;2023-02-28T00:06:06;1.50;;;0.00;;
36221;SDS011;22266;52.340;4.962;2023-02-28T00:08:33;0.75;;;0.00;;
36221;SDS011;22266;52.340;4.962;2023-02-28T00:11:01;3.00;;;1.25;;
36221;SDS011;22266;52.340;4.962;2023-02-28T00:13:28;0.00;;;0.00;;
36221;SDS011;22266;52.340;4.962;2023-02-28T00:15:59;0.00;;;0.00;;
36221;SDS011;22266;52.340;4.962;2023-02-28T00:18:26;1.00;;;1.00;;
36221;SDS011;22266;52.340;4.962;2023-02-28T00:20:57;0.00;;;0.00;;
36221;SDS011;22266;52.340;4.962;2023-02-28T00:23:24;0.75;;;0.75;;
36221;SDS011;22266;52.340;4.962;2023-02-28T00:25:50;0.25;;;0.25;;
36221;SDS011;22266;52.340;4.962;2023-02-28T00:28:17;1.00;;;1.00;;
36221;SDS011;22266;52.340;4.962;2023-02-28T00:30:44;0.00;;;0.00;;
36221;SDS011;22266;52.340;4.962;2023-02-28T00:33:11;1.25;;;1.25;;
36221;SDS011;22266;52.340;4.962;2023-02-28T00:35:37;1.00;;;1.00;;
36221;SDS011;22266;52.340;4.962;2023-02-28T00:38:04;0.25;;;0.25;;
36221;SDS011;22266;52.340;4.962;2023-02-28T00:40:33;0.75;;;0.00;;
36221;SDS011;22266;52.340;4.962;2023-02-28T00:43:00;0.00;;;0.00;;
36221;SDS011;22266;52.340;4.962;2023-02-28T00:45:26;0.25;;;0.25;;
36221;SDS011;22266;52.340;4.962;2023-02-28T00:47:53;1.00;;;1.00;;
36221;SDS011;22266;52.340;4.962;2023-02-28T00:50:20;0.50;;;0.50;;
36221;SDS011;22266;52.340;4.962;2023-02-28T00:52:46;1.50;;;1.50;;
36221;SDS011;22266;52.340;4.962;2023-02-28T00:55:13;3.75;;;1.50;;
36221;SDS011;22266;52.340;4.962;2023-02-28T00:57:40;0.25;;;0.25;;
36221;SDS011;22266;52.340;4.962;2023-02-28T01:00:07;1.00;;;1.00;;
36221;SDS011;22266;52.340;4.962;2023-02-28T01:02:34;2.75;;;0.25;;
36221;SDS011;22266;52.340;4.962;2023-02-28T01:05:00;1.50;;;1.50;;
36221;SDS011;22266;52.340;4.962;2023-02-28T01:07:29;1.50;;;1.50;;
36221;SDS011;22266;52.340;4.962;2023-02-28T01:09:55;1.00;;;0.00;;
36221;SDS011;22266;52.340;4.962;2023-02-28T01:12:23;1.00;;;1.00;;
36221;SDS011;22266;52.340;4.962;2023-02-28T01:14:50;1.00;;;1.00;;
36221;SDS011;22266;52.340;4.962;2023-02-28T01:17:16;2.00;;;0.25;;
36221;SDS011;22266;52.340;4.962;2023-02-28T01:19:43;2.50;;;1.00;;
36221;SDS011;22266;52.340;4.962;2023-02-28T01:22:09;1.00;;;1.00;;
36221;SDS011;22266;52.340;4.962;2023-02-28T01:24:36;1.00;;;1.00;;
36221;SDS011;22266;52.340;4.962;2023-02-28T01:27:03;1.00;;;1.00;;
36221;SDS011;22266;52.340;4.962;2023-02-28T01:29:30;1.00;;;1.00;;
36221;SDS011;22266;52.340;4.962;2023-02-28T01:31:56;0.25;;;0.25;;
36221;SDS011;22266;52.340;4.962;2023-02-28T01:34:25;1.00;;;1.00;;
36221;SDS011;22266;52.340;4.962;2023-02-28T01:36:51;3.00;;;1.00;;
36221;SDS011;22266;52.340;4.962;2023-02-28T01:39:18;1.00;;;1.00;;
36221;SDS011;22266;52.340;4.962;2023-02-28T01:41:44;0.50;;;0.00;;
36221;SDS011;22266;52.340;4.962;2023-02-28T01:47:15;2.00;;;0.50;;
36221;SDS011;22266;52.340;4.962;2023-02-28T01:49:41;1.00;;;1.00;;
36221;SDS011;22266;52.340;4.962;2023-02-28T01:52:08;0.25;;;0.25;;
36221;SDS011;22266;52.340;4.962;2023-02-28T01:54:45;0.00;;;0.00;;
36221;SDS011;22266;52.340;4.962;2023-02-28T01:57:18;1.00;;;1.00;;
36221;SDS011;22266;52.340;4.962;2023-02-28T01:59:54;0.00;;;0.00;;
36221;SDS011;22266;52.340;4.962;2023-02-28T02:02:26;0.75;;;0.75;;
36221;SDS011;22266;52.340;4.962;2023-02-28T02:04:56;0.50;;;0.50;;
36221;SDS011;22266;52.340;4.962;2023-02-28T02:07:32;0.00;;;0.00;;
36221;SDS011;22266;52.340;4.962;2023-02-28T02:10:21;2.25;;;1.00;;
36221;SDS011;22266;52.340;4.962;2023-02-28T02:12:56;0.00;;;0.00;;
36221;SDS011;22266;52.340;4.962;2023-02-28T02:23:51;0.00;;;0.00;;
36221;SDS011;22266;52.340;4.962;2023-02-28T02:37:56;2.00;;;2.00;;
36221;SDS011;22266;52.340;4.962;2023-02-28T02:40:41;0.00;;;0.00;;
36221;SDS011;22266;52.340;4.962;2023-02-28T02:43:19;1.00;;;1.00;;
36221;SDS011;22266;52.340;4.962;2023-02-28T02:45:55;1.00;;;1.00;;
36221;SDS011;22266;52.340;4.962;2023-02-28T02:48:27;2.50;;;1.75;;
36221;SDS011;22266;52.340;4.962;2023-02-28T02:50:59;1.00;;;0.00;;
36221;SDS011;22266;52.340;4.962;2023-02-28T02:53:32;1.75;;;1.75;;
36221;SDS011;22266;52.340;4.962;2023-02-28T02:56:04;1.00;;;1.00;;
36221;SDS011;22266;52.340;4.962;2023-02-28T02:58:35;1.00;;;1.00;;
36221;SDS011;22266;52.340;4.962;2023-02-28T03:01:10;0.75;;;0.75;;
36221;SDS011;22266;52.340;4.962;2023-02-28T03:03:42;2.00;;;2.00;;
36221;SDS011;22266;52.340;4.962;2023-02-28T03:06:11;1.00;;;1.00;;
36221;SDS011;22266;52.340;4.962;2023-02-28T03:08:38;4.00;;;1.25;;
36221;SDS011;22266;52.340;4.962;2023-02-28T03:11:05;2.75;;;1.50;;
36221;SDS011;22266;52.340;4.962;2023-02-28T03:13:42;4.00;;;2.00;;
36221;SDS011;22266;52.340;4.962;2023-02-28T03:16:36;5.00;;;4.00;;
36221;SDS011;22266;52.340;4.962;2023-02-28T03:27:06;1.00;;;1.00;;
36221;SDS011;22266;52.340;4.962;2023-02-28T03:29:39;1.00;;;1.00;;
36221;SDS011;22266;52.340;4.962;2023-02-28T03:32:16;2.00;;;2.00;;
36221;SDS011;22266;52.340;4.962;2023-02-28T03:34:49;1.25;;;1.25;;
36221;SDS011;22266;52.340;4.962;2023-02-28T03:37:23;2.50;;;1.50;;
36221;SDS011;22266;52.340;4.962;2023-02-28T03:39:54;1.50;;;1.50;;
36221;SDS011;22266;52.340;4.962;2023-02-28T03:42:27;1.75;;;1.75;;
36221;SDS011;22266;52.340;4.962;2023-02-28T03:44:59;1.00;;;1.00;;
36221;SDS011;22266;52.340;4.962;2023-02-28T03:47:32;2.50;;;1.00;;
36221;SDS011;22266;52.340;4.962;2023-02-28T03:50:05;1.00;;;0.50;;
36221;SDS011;22266;52.340;4.962;2023-02-28T03:52:47;1.25;;;1.25;;
36221;SDS011;22266;52.340;4.962;2023-02-28T03:55:32;1.00;;;1.00;;
36221;SDS011;22266;52.340;4.962;2023-02-28T04:01:13;3.50;;;2.50;;
36221;SDS011;22266;52.340;4.962;2023-02-28T04:03:45;1.75;;;1.75;;
36221;SDS011;22266;52.340;4.962;2023-02-28T04:06:16;5.00;;;3.50;;
36221;SDS011;22266;52.340;4.962;2023-02-28T04:08:45;2.75;;;2.75;;
36221;SDS011;22266;52.340;4.962;2023-02-28T04:13:46;2.00;;;2.00;;
36221;SDS011;22266;52.340;4.962;2023-02-28T04:16:14;1.75;;;1.75;;
36221;SDS011;22266;52.340;4.962;2023-02-28T04:18:59;2.00;;;2.00;;
36221;SDS011;22266;52.340;4.962;2023-02-28T04:21:35;3.75;;;3.75;;
36221;SDS011;22266;52.340;4.962;2023-02-28T04:24:07;2.50;;;2.50;;
36221;SDS011;22266;52.340;4.962;2023-02-28T04:26:40;1.00;;;1.00;;
36221;SDS011;22266;52.340;4.962;2023-02-28T04:29:13;1.75;;;1.75;;
36221;SDS011;22266;52.340;4.962;2023-02-28T04:31:43;8.00;;;3.00;;
36221;SDS011;22266;52.340;4.962;2023-02-28T04:34:10;6.00;;;3.50;;
36221;SDS011;22266;52.340;4.962;2023-02-28T04:36:36;1.75;;;1.75;;
36221;SDS011;22266;52.340;4.962;2023-02-28T04:39:03;2.00;;;2.00;;
36221;SDS011;22266;52.340;4.962;2023-02-28T04:41:30;2.00;;;2.00;;
36221;SDS011;22266;52.340;4.962;2023-02-28T04:43:58;4.25;;;2.50;;
36221;SDS011;22266;52.340;4.962;2023-02-28T04:46:24;5.00;;;5.00;;
36221;SDS011;22266;52.340;4.962;2023-02-28T04:48:51;4.00;;;4.00;;
36221;SDS011;22266;52.340;4.962;2023-02-28T04:51:18;2.50;;;2.50;;
36221;SDS011;22266;52.340;4.962;2023-02-28T04:53:46;7.75;;;5.50;;
36221;SDS011;22266;52.340;4.962;2023-02-28T04:56:14;6.00;;;4.00;;
36221;SDS011;22266;52.340;4.962;2023-02-28T04:58:42;4.50;;;4.00;;
36221;SDS011;22266;52.340;4.962;2023-02-28T05:03:57;1.50;;;1.50;;
36221;SDS011;22266;52.340;4.962;2023-02-28T05:06:25;2.50;;;2.50;;
36221;SDS011;22266;52.340;4.962;2023-02-28T05:08:53;6.75;;;4.00;;
36221;SDS011;22266;52.340;4.962;2023-02-28T05:11:30;4.00;;;2.25;;
36221;SDS011;22266;52.340;4.962;2023-02-28T05:14:06;2.00;;;2.00;;
36221;SDS011;22266;52.340;4.962;2023-02-28T05:16:36;2.00;;;2.00;;
36221;SDS011;22266;52.340;4.962;2023-02-28T05:19:03;3.50;;;3.50;;
36221;SDS011;22266;52.340;4.962;2023-02-28T05:24:01;5.25;;;5.00;;
36221;SDS011;22266;52.340;4.962;2023-02-28T05:26:30;5.75;;;5.75;;
36221;SDS011;22266;52.340;4.962;2023-02-28T05:28:57;8.00;;;6.25;;
36221;SDS011;22266;52.340;4.962;2023-02-28T05:31:23;10.75;;;7.50;;
36221;SDS011;22266;52.340;4.962;2023-02-28T05:33:50;10.00;;;8.25;;
36221;SDS011;22266;52.340;4.962;2023-02-28T05:36:17;9.00;;;9.00;;
36221;SDS011;22266;52.340;4.962;2023-02-28T05:38:45;16.50;;;11.25;;
36221;SDS011;22266;52.340;4.962;2023-02-28T05:41:13;15.25;;;12.50;;
36221;SDS011;22266;52.340;4.962;2023-02-28T05:43:39;8.00;;;7.75;;
36221;SDS011;22266;52.340;4.962;2023-02-28T05:46:06;12.00;;;11.00;;
36221;SDS011;22266;52.340;4.962;2023-02-28T05:48:34;8.00;;;7.75;;
36221;SDS011;22266;52.340;4.962;2023-02-28T05:51:02;13.00;;;11.00;;
36221;SDS011;22266;52.340;4.962;2023-02-28T05:53:29;13.00;;;11.00;;
36221;SDS011;22266;52.340;4.962;2023-02-28T05:55:57;12.75;;;10.00;;
36221;SDS011;22266;52.340;4.962;2023-02-28T05:58:23;11.50;;;8.00;;
36221;SDS011;22266;52.340;4.962;2023-02-28T06:00:57;11.00;;;9.50;;
36221;SDS011;22266;52.340;4.962;2023-02-28T06:03:24;11.00;;;11.00;;
36221;SDS011;22266;52.340;4.962;2023-02-28T06:05:51;12.25;;;9.75;;
36221;SDS011;22266;52.340;4.962;2023-02-28T06:08:18;11.25;;;11.00;;
36221;SDS011;22266;52.340;4.962;2023-02-28T06:10:44;13.25;;;10.00;;
36221;SDS011;22266;52.340;4.962;2023-02-28T06:13:11;11.75;;;11.75;;
36221;SDS011;22266;52.340;4.962;2023-02-28T06:15:38;14.00;;;14.00;;
36221;SDS011;22266;52.340;4.962;2023-02-28T06:18:05;15.00;;;14.25;;
36221;SDS011;22266;52.340;4.962;2023-02-28T06:20:32;18.00;;;14.75;;
36221;SDS011;22266;52.340;4.962;2023-02-28T06:22:59;13.50;;;11.75;;
36221;SDS011;22266;52.340;4.962;2023-02-28T06:25:26;20.50;;;17.00;;
36221;SDS011;22266;52.340;4.962;2023-02-28T06:27:53;24.25;;;21.00;;
36221;SDS011;22266;52.340;4.962;2023-02-28T06:30:21;18.50;;;14.75;;
36221;SDS011;22266;52.340;4.962;2023-02-28T06:32:51;15.75;;;14.75;;
36221;SDS011;22266;52.340;4.962;2023-02-28T06:35:18;16.75;;;16.75;;
36221;SDS011;22266;52.340;4.962;2023-02-28T06:37:44;15.75;;;14.00;;
36221;SDS011;22266;52.340;4.962;2023-02-28T06:40:11;14.25;;;14.25;;
36221;SDS011;22266;52.340;4.962;2023-02-28T06:42:39;16.25;;;12.75;;
36221;SDS011;22266;52.340;4.962;2023-02-28T06:45:06;14.00;;;13.75;;
36221;SDS011;22266;52.340;4.962;2023-02-28T06:47:36;7.00;;;4.25;;
36221;SDS011;22266;52.340;4.962;2023-02-28T06:50:04;11.50;;;11.00;;
36221;SDS011;22266;52.340;4.962;2023-02-28T06:52:31;12.25;;;11.25;;
36221;SDS011;22266;52.340;4.962;2023-02-28T06:54:58;13.75;;;11.25;;
36221;SDS011;22266;52.340;4.962;2023-02-28T06:57:28;14.00;;;13.50;;
36221;SDS011;22266;52.340;4.962;2023-02-28T06:59:59;16.00;;;11.00;;
36221;SDS011;22266;52.340;4.962;2023-02-28T07:02:27;13.00;;;13.00;;
36221;SDS011;22266;52.340;4.962;2023-02-28T07:04:53;11.75;;;11.00;;
36221;SDS011;22266;52.340;4.962;2023-02-28T07:07:20;14.00;;;10.00;;
36221;SDS011;22266;52.340;4.962;2023-02-28T07:09:47;7.75;;;7.75;;
36221;SDS011;22266;52.340;4.962;2023-02-28T07:12:13;12.00;;;10.75;;
36221;SDS011;22266;52.340;4.962;2023-02-28T07:14:40;12.50;;;11.00;;
36221;SDS011;22266;52.340;4.962;2023-02-28T07:17:07;12.00;;;11.75;;
36221;SDS011;22266;52.340;4.962;2023-02-28T07:19:36;10.75;;;9.50;;
36221;SDS011;22266;52.340;4.962;2023-02-28T07:22:04;12.50;;;9.50;;
36221;SDS011;22266;52.340;4.962;2023-02-28T07:24:30;13.50;;;13.00;;
36221;SDS011;22266;52.340;4.962;2023-02-28T07:26:57;13.00;;;10.75;;
36221;SDS011;22266;52.340;4.962;2023-02-28T07:29:23;13.00;;;12.75;;
36221;SDS011;22266;52.340;4.962;2023-02-28T07:31:50;13.00;;;11.25;;
36221;SDS011;22266;52.340;4.962;2023-02-28T07:34:19;14.00;;;13.75;;
36221;SDS011;22266;52.340;4.962;2023-02-28T07:36:46;16.00;;;12.75;;
36221;SDS011;22266;52.340;4.962;2023-02-28T07:39:13;15.75;;;13.25;;
36221;SDS011;22266;52.340;4.962;2023-02-28T07:41:39;14.75;;;11.00;;
36221;SDS011;22266;52.340;4.962;2023-02-28T07:44:10;13.50;;;13.00;;
36221;SDS011;22266;52.340;4.962;2023-02-28T07:46:37;18.25;;;11.00;;
36221;SDS011;22266;52.340;4.962;2023-02-28T07:49:04;13.25;;;13.25;;
36221;SDS011;22266;52.340;4.962;2023-02-28T07:51:31;13.50;;;11.50;;
36221;SDS011;22266;52.340;4.962;2023-02-28T07:53:58;11.00;;;11.00;;
36221;SDS011;22266;52.340;4.962;2023-02-28T07:56:24;13.75;;;12.50;;
36221;SDS011;22266;52.340;4.962;2023-02-28T07:58:51;10.25;;;10.25;;
36221;SDS011;22266;52.340;4.962;2023-02-28T08:01:17;13.00;;;13.00;;
36221;SDS011;22266;52.340;4.962;2023-02-28T08:03:45;13.00;;;13.00;;
36221;SDS011;22266;52.340;4.962;2023-02-28T08:06:16;11.00;;;11.00;;
36221;SDS011;22266;52.340;4.962;2023-02-28T08:08:44;11.25;;;11.25;;
36221;SDS011;22266;52.340;4.962;2023-02-28T08:11:10;10.00;;;7.50;;
36221;SDS011;22266;52.340;4.962;2023-02-28T08:13:37;13.25;;;10.75;;
36221;SDS011;22266;52.340;4.962;2023-02-28T08:16:03;9.00;;;7.25;;
36221;SDS011;22266;52.340;4.962;2023-02-28T08:18:30;7.00;;;7.00;;
36221;SDS011;22266;52.340;4.962;2023-02-28T08:20:58;11.00;;;10.00;;
36221;SDS011;22266;52.340;4.962;2023-02-28T08:23:25;9.00;;;9.00;;
36221;SDS011;22266;52.340;4.962;2023-02-28T08:25:55;10.00;;;8.00;;
36221;SDS011;22266;52.340;4.962;2023-02-28T08:28:22;10.50;;;9.50;;
36221;SDS011;22266;52.340;4.962;2023-02-28T08:30:52;5.00;;;5.00;;
36221;SDS011;22266;52.340;4.962;2023-02-28T08:33:18;7.50;;;7.00;;
36221;SDS011;22266;52.340;4.962;2023-02-28T08:35:45;8.00;;;8.00;;
36221;SDS011;22266;52.340;4.962;2023-02-28T08:38:11;10.50;;;10.25;;
36221;SDS011;22266;52.340;4.962;2023-02-28T08:40:38;9.25;;;7.00;;
36221;SDS011;22266;52.340;4.962;2023-02-28T08:43:05;8.25;;;8.25;;
36221;SDS011;22266;52.340;4.962;2023-02-28T08:45:31;8.00;;;8.00;;
36221;SDS011;22266;52.340;4.962;2023-02-28T08:47:58;8.75;;;8.75;;
36221;SDS011;22266;52.340;4.962;2023-02-28T08:50:24;10.25;;;9.50;;
36221;SDS011;22266;52.340;4.962;2023-02-28T08:52:50;8.50;;;8.50;;
36221;SDS011;22266;52.340;4.962;2023-02-28T08:55:17;8.25;;;7.50;;
36221;SDS011;22266;52.340;4.962;2023-02-28T08:57:43;5.00;;;5.00;;
36221;SDS011;22266;52.340;4.962;2023-02-28T09:00:10;10.00;;;6.50;;
36221;SDS011;22266;52.340;4.962;2023-02-28T09:02:39;7.00;;;7.00;;
36221;SDS011;22266;52.340;4.962;2023-02-28T09:05:06;5.00;;;5.00;;
36221;SDS011;22266;52.340;4.962;2023-02-28T09:07:34;6.75;;;6.75;;
36221;SDS011;22266;52.340;4.962;2023-02-28T09:10:00;9.00;;;8.75;;
36221;SDS011;22266;52.340;4.962;2023-02-28T09:12:27;7.00;;;5.50;;
36221;SDS011;22266;52.340;4.962;2023-02-28T09:14:59;7.00;;;7.00;;
36221;SDS011;22266;52.340;4.962;2023-02-28T09:17:26;8.00;;;8.00;;
36221;SDS011;22266;52.340;4.962;2023-02-28T09:19:56;8.00;;;7.00;;
36221;SDS011;22266;52.340;4.962;2023-02-28T09:22:23;10.25;;;8.00;;
36221;SDS011;22266;52.340;4.962;2023-02-28T09:24:49;12.75;;;9.50;;
36221;SDS011;22266;52.340;4.962;2023-02-28T09:27:16;8.25;;;7.00;;
36221;SDS011;22266;52.340;4.962;2023-02-28T09:29:42;7.50;;;7.50;;
36221;SDS011;22266;52.340;4.962;2023-02-28T09:32:09;11.00;;;9.50;;
36221;SDS011;22266;52.340;4.962;2023-02-28T09:34:35;7.50;;;7.50;;
36221;SDS011;22266;52.340;4.962;2023-02-28T09:37:03;11.25;;;11.00;;
36221;SDS011;22266;52.340;4.962;2023-02-28T09:39:29;8.00;;;8.00;;
36221;SDS011;22266;52.340;4.962;2023-02-28T09:41:56;7.75;;;7.75;;
36221;SDS011;22266;52.340;4.962;2023-02-28T09:47:05;6.00;;;6.00;;
36221;SDS011;22266;52.340;4.962;2023-02-28T09:49:40;5.50;;;5.50;;
36221;SDS011;22266;52.340;4.962;2023-02-28T09:52:10;7.00;;;5.50;;
36221;SDS011;22266;52.340;4.962;2023-02-28T09:54:44;7.00;;;7.00;;
36221;SDS011;22266;52.340;4.962;2023-02-28T09:57:14;10.25;;;6.50;;
36221;SDS011;22266;52.340;4.962;2023-02-28T10:05:24;7.00;;;7.00;;
36221;SDS011;22266;52.340;4.962;2023-02-28T10:10:48;6.00;;;6.00;;
36221;SDS011;22266;52.340;4.962;2023-02-28T10:16:38;6.00;;;6.00;;
36221;SDS011;22266;52.340;4.962;2023-02-28T10:19:09;6.50;;;6.00;;
36221;SDS011;22266;52.340;4.962;2023-02-28T10:21:44;6.75;;;6.75;;
36221;SDS011;22266;52.340;4.962;2023-02-28T10:24:19;9.00;;;7.50;;
36221;SDS011;22266;52.340;4.962;2023-02-28T10:26:49;7.50;;;7.50;;
36221;SDS011;22266;52.340;4.962;2023-02-28T10:29:22;8.75;;;7.00;;
36221;SDS011;22266;52.340;4.962;2023-02-28T10:31:48;10.25;;;8.50;;
36221;SDS011;22266;52.340;4.962;2023-02-28T10:34:15;8.50;;;6.25;;
36221;SDS011;22266;52.340;4.962;2023-02-28T10:36:41;9.00;;;7.25;;
36221;SDS011;22266;52.340;4.962;2023-02-28T10:42:20;8.25;;;8.25;;
36221;SDS011;22266;52.340;4.962;2023-02-28T10:45:04;8.00;;;8.00;;
36221;SDS011;22266;52.340;4.962;2023-02-28T10:47:49;7.00;;;7.00;;
36221;SDS011;22266;52.340;4.962;2023-02-28T11:03:58;4.00;;;4.00;;
36221;SDS011;22266;52.340;4.962;2023-02-28T11:06:26;7.75;;;5.00;;
36221;SDS011;22266;52.340;4.962;2023-02-28T11:08:58;4.00;;;4.00;;
36221;SDS011;22266;52.340;4.962;2023-02-28T11:11:29;3.00;;;2.25;;
36221;SDS011;22266;52.340;4.962;2023-02-28T11:14:14;4.00;;;4.00;;
36221;SDS011;22266;52.340;4.962;2023-02-28T11:16:46;6.00;;;6.00;;
36221;SDS011;22266;52.340;4.962;2023-02-28T11:19:23;4.25;;;4.25;;
36221;SDS011;22266;52.340;4.962;2023-02-28T11:21:59;4.00;;;4.00;;
36221;SDS011;22266;52.340;4.962;2023-02-28T11:24:36;5.00;;;5.00;;
36221;SDS011;22266;52.340;4.962;2023-02-28T11:27:24;7.00;;;7.00;;
36221;SDS011;22266;52.340;4.962;2023-02-28T11:30:22;5.50;;;5.50;;
36221;SDS011;22266;52.340;4.962;2023-02-28T11:32:49;8.00;;;7.00;;
36221;SDS011;22266;52.340;4.962;2023-02-28T11:35:24;7.50;;;4.50;;
36221;SDS011;22266;52.340;4.962;2023-02-28T11:37:55;8.50;;;7.00;;
36221;SDS011;22266;52.340;4.962;2023-02-28T11:46:37;4.00;;;4.00;;
36221;SDS011;22266;52.340;4.962;2023-02-28T11:49:15;6.00;;;5.50;;
36221;SDS011;22266;52.340;4.962;2023-02-28T11:51:59;8.25;;;7.25;;
36221;SDS011;22266;52.340;4.962;2023-02-28T11:57:33;6.25;;;6.25;;
36221;SDS011;22266;52.340;4.962;2023-02-28T12:06:08;3.50;;;3.50;;
36221;SDS011;22266;52.340;4.962;2023-02-28T12:11:35;6.00;;;5.00;;
36221;SDS011;22266;52.340;4.962;2023-02-28T12:19:59;4.75;;;4.75;;
36221;SDS011;22266;52.340;4.962;2023-02-28T12:22:46;9.25;;;9.25;;
36221;SDS011;22266;52.340;4.962;2023-02-28T12:25:22;5.25;;;5.25;;
36221;SDS011;22266;52.340;4.962;2023-02-28T12:27:53;4.75;;;4.75;;
36221;SDS011;22266;52.340;4.962;2023-02-28T12:30:27;5.25;;;5.25;;
36221;SDS011;22266;52.340;4.962;2023-02-28T12:35:40;6.00;;;6.00;;
36221;SDS011;22266;52.340;4.962;2023-02-28T12:38:10;4.75;;;4.00;;
36221;SDS011;22266;52.340;4.962;2023-02-28T12:40:42;9.25;;;7.00;;
36221;SDS011;22266;52.340;4.962;2023-02-28T12:43:21;6.00;;;6.00;;
36221;SDS011;22266;52.340;4.962;2023-02-28T12:45:56;8.00;;;5.50;;
36221;SDS011;22266;52.340;4.962;2023-02-28T12:48:47;9.75;;;7.75;;
36221;SDS011;22266;52.340;4.962;2023-02-28T12:51:18;7.25;;;6.00;;
36221;SDS011;22266;52.340;4.962;2023-02-28T12:56:33;6.00;;;6.00;;
36221;SDS011;22266;52.340;4.962;2023-02-28T12:59:41;7.00;;;7.00;;
36221;SDS011;22266;52.340;4.962;2023-02-28T13:07:40;7.75;;;6.00;;
36221;SDS011;22266;52.340;4.962;2023-02-28T13:10:24;4.75;;;4.75;;
36221;SDS011;22266;52.340;4.962;2023-02-28T13:13:02;5.00;;;4.50;;
36221;SDS011;22266;52.340;4.962;2023-02-28T13:15:30;7.00;;;7.00;;
36221;SDS011;22266;52.340;4.962;2023-02-28T13:18:00;5.00;;;5.00;;
36221;SDS011;22266;52.340;4.962;2023-02-28T13:20:33;6.00;;;5.50;;
36221;SDS011;22266;52.340;4.962;2023-02-28T13:23:02;6.00;;;6.00;;
36221;SDS011;22266;52.340;4.962;2023-02-28T13:28:01;5.50;;;5.50;;
36221;SDS011;22266;52.340;4.962;2023-02-28T13:36:10;8.00;;;5.75;;
36221;SDS011;22266;52.340;4.962;2023-02-28T13:38:38;8.00;;;7.50;;
36221;SDS011;22266;52.340;4.962;2023-02-28T13:49:23;7.50;;;7.50;;
36221;SDS011;22266;52.340;4.962;2023-02-28T13:51:52;11.00;;;7.00;;
36221;SDS011;22266;52.340;4.962;2023-02-28T14:03:07;8.25;;;8.25;;
36221;SDS011;22266;52.340;4.962;2023-02-28T14:05:43;10.00;;;5.75;;
36221;SDS011;22266;52.340;4.962;2023-02-28T14:08:15;9.00;;;8.00;;
36221;SDS011;22266;52.340;4.962;2023-02-28T14:10:48;5.00;;;5.00;;
36221;SDS011;22266;52.340;4.962;2023-02-28T14:16:10;6.75;;;6.00;;
36221;SDS011;22266;52.340;4.962;2023-02-28T14:18:41;7.00;;;7.00;;
36221;SDS011;22266;52.340;4.962;2023-02-28T14:21:26;9.75;;;9.00;;
36221;SDS011;22266;52.340;4.962;2023-02-28T14:27:11;6.75;;;5.00;;
36221;SDS011;22266;52.340;4.962;2023-02-28T14:37:52;7.50;;;7.50;;
36221;SDS011;22266;52.340;4.962;2023-02-28T14:43:00;8.50;;;6.75;;
36221;SDS011;22266;52.340;4.962;2023-02-28T14:45:30;8.00;;;7.75;;
36221;SDS011;22266;52.340;4.962;2023-02-28T14:47:59;7.00;;;7.00;;
36221;SDS011;22266;52.340;4.962;2023-02-28T14:50:32;4.00;;;4.00;;
36221;SDS011;22266;52.340;4.962;2023-02-28T14:53:01;8.00;;;7.50;;
36221;SDS011;22266;52.340;4.962;2023-02-28T14:55:34;6.00;;;6.00;;
36221;SDS011;22266;52.340;4.962;2023-02-28T14:58:05;7.75;;;7.75;;
36221;SDS011;22266;52.340;4.962;2023-02-28T15:00:36;6.00;;;6.00;;
36221;SDS011;22266;52.340;4.962;2023-02-28T15:03:30;10.50;;;9.00;;
36221;SDS011;22266;52.340;4.962;2023-02-28T15:06:00;10.50;;;8.25;;
36221;SDS011;22266;52.340;4.962;2023-02-28T15:08:29;8.00;;;8.00;;
36221;SDS011;22266;52.340;4.962;2023-02-28T15:11:02;9.00;;;8.25;;
36221;SDS011;22266;52.340;4.962;2023-02-28T15:13:38;8.00;;;8.00;;
36221;SDS011;22266;52.340;4.962;2023-02-28T15:16:09;5.75;;;5.75;;
36221;SDS011;22266;52.340;4.962;2023-02-28T15:18:43;5.50;;;5.50;;
36221;SDS011;22266;52.340;4.962;2023-02-28T15:21:16;5.75;;;5.00;;
36221;SDS011;22266;52.340;4.962;2023-02-28T15:23:52;8.25;;;8.25;;
36221;SDS011;22266;52.340;4.962;2023-02-28T15:26:24;9.50;;;9.25;;
36221;SDS011;22266;52.340;4.962;2023-02-28T15:29:00;7.75;;;7.75;;
36221;SDS011;22266;52.340;4.962;2023-02-28T15:31:40;8.00;;;8.00;;
36221;SDS011;22266;52.340;4.962;2023-02-28T15:34:26;8.50;;;8.50;;
36221;SDS011;22266;52.340;4.962;2023-02-28T15:40:10;8.00;;;6.00;;
36221;SDS011;22266;52.340;4.962;2023-02-28T15:43:05;10.50;;;9.75;;
36221;SDS011;22266;52.340;4.962;2023-02-28T15:45:39;6.25;;;5.75;;
36221;SDS011;22266;52.340;4.962;2023-02-28T15:48:13;6.75;;;6.75;;
36221;SDS011;22266;52.340;4.962;2023-02-28T15:50:44;9.00;;;5.50;;
36221;SDS011;22266;52.340;4.962;2023-02-28T15:53:16;7.75;;;7.00;;
36221;SDS011;22266;52.340;4.962;2023-02-28T15:55:45;8.00;;;6.25;;
36221;SDS011;22266;52.340;4.962;2023-02-28T15:58:20;7.25;;;7.25;;
36221;SDS011;22266;52.340;4.962;2023-02-28T16:00:59;7.50;;;7.50;;
36221;SDS011;22266;52.340;4.962;2023-02-28T16:03:40;5.00;;;5.00;;
36221;SDS011;22266;52.340;4.962;2023-02-28T16:09:02;7.50;;;6.75;;
36221;SDS011;22266;52.340;4.962;2023-02-28T16:11:30;7.00;;;7.00;;
36221;SDS011;22266;52.340;4.962;2023-02-28T16:13:59;8.50;;;7.00;;
36221;SDS011;22266;52.340;4.962;2023-02-28T16:16:25;10.00;;;9.75;;
36221;SDS011;22266;52.340;4.962;2023-02-28T16:18:52;7.75;;;6.00;;
36221;SDS011;22266;52.340;4.962;2023-02-28T16:21:19;5.00;;;5.00;;
36221;SDS011;22266;52.340;4.962;2023-02-28T16:23:46;7.50;;;6.50;;
36221;SDS011;22266;52.340;4.962;2023-02-28T16:26:18;11.75;;;11.00;;
36221;SDS011;22266;52.340;4.962;2023-02-28T16:28:47;7.00;;;7.00;;
36221;SDS011;22266;52.340;4.962;2023-02-28T16:31:15;4.00;;;4.00;;
36221;SDS011;22266;52.340;4.962;2023-02-28T16:33:43;5.00;;;5.00;;
36221;SDS011;22266;52.340;4.962;2023-02-28T16:36:18;10.00;;;10.00;;
36221;SDS011;22266;52.340;4.962;2023-02-28T16:38:46;9.50;;;8.75;;
36221;SDS011;22266;52.340;4.962;2023-02-28T16:41:17;9.00;;;9.00;;
36221;SDS011;22266;52.340;4.962;2023-02-28T16:43:48;8.00;;;8.00;;
36221;SDS011;22266;52.340;4.962;2023-02-28T16:46:17;6.75;;;6.75;;
36221;SDS011;22266;52.340;4.962;2023-02-28T16:48:45;10.50;;;8.00;;
36221;SDS011;22266;52.340;4.962;2023-02-28T16:51:17;9.25;;;7.75;;
36221;SDS011;22266;52.340;4.962;2023-02-28T16:53:44;6.25;;;5.75;;
36221;SDS011;22266;52.340;4.962;2023-02-28T16:56:15;6.25;;;6.25;;
36221;SDS011;22266;52.340;4.962;2023-02-28T16:58:45;5.00;;;5.00;;
36221;SDS011;22266;52.340;4.962;2023-02-28T17:01:12;8.25;;;6.25;;
36221;SDS011;22266;52.340;4.962;2023-02-28T17:03:40;9.00;;;8.50;;
36221;SDS011;22266;52.340;4.962;2023-02-28T17:06:16;14.25;;;11.00;;
36221;SDS011;22266;52.340;4.962;2023-02-28T17:08:48;10.00;;;7.00;;
36221;SDS011;22266;52.340;4.962;2023-02-28T17:11:16;8.25;;;5.50;;
36221;SDS011;22266;52.340;4.962;2023-02-28T17:13:43;9.00;;;9.00;;
36221;SDS011;22266;52.340;4.962;2023-02-28T17:16:13;12.00;;;11.25;;
36221;SDS011;22266;52.340;4.962;2023-02-28T17:18:51;15.00;;;11.25;;
36221;SDS011;22266;52.340;4.962;2023-02-28T17:21:20;13.75;;;12.00;;
36221;SDS011;22266;52.340;4.962;2023-02-28T17:23:47;11.50;;;9.75;;
36221;SDS011;22266;52.340;4.962;2023-02-28T17:26:14;14.00;;;11.00;;
36221;SDS011;22266;52.340;4.962;2023-02-28T17:28:51;13.50;;;9.50;;
36221;SDS011;22266;52.340;4.962;2023-02-28T17:31:18;12.75;;;9.00;;
36221;SDS011;22266;52.340;4.962;2023-02-28T17:33:44;9.50;;;9.50;;
36221;SDS011;22266;52.340;4.962;2023-02-28T17:36:15;9.75;;;9.75;;
36221;SDS011;22266;52.340;4.962;2023-02-28T17:38:48;9.00;;;8.75;;